Time;durP1;ratioP1;P1;durP2;ratioP2;P2;SDS_P1;SDS_P2;PMS_P1;PMS_P2;Temp;Humidity;BMP_temperature;BMP_pressure;BME280_temperature;BME280_humidity;BME280_pressure;Samples;Min_cycle;Max_cycle;Signal;HPM_P1;HPM_P2
2022/12/07 00:02:43;;;;;;;45.67;33.47;;;;;;;1.52;100.00;101606.94;10265279;28;20065;-82
2022/12/07 00:07:43;;;;;;;42.78;32.45;;;;;;;1.33;100.00;101608.50;10264539;28;20035;-82
2022/12/07 00:12:44;;;;;;;50.97;37.67;;;;;;;1.08;100.00;101608.69;10280781;28;20050;-82
2022/12/07 00:17:44;;;;;;;44.92;34.38;;;;;;;1.05;100.00;101613.56;10283101;28;20066;-83
2022/12/07 00:22:45;;;;;;;57.63;36.88;;;;;;;0.99;100.00;101608.69;10280058;28;20177;-80
2022/12/07 00:27:45;;;;;;;52.50;39.28;;;;;;;1.06;100.00;101610.22;10281792;28;20379;-82
2022/12/07 00:32:46;;;;;;;60.80;43.55;;;;;;;1.23;100.00;101610.19;10279900;28;20092;-85
2022/12/07 00:37:46;;;;;;;62.90;42.42;;;;;;;1.44;100.00;101589.81;10279995;28;20125;-85
2022/12/07 00:42:47;;;;;;;58.47;43.33;;;;;;;1.54;100.00;101581.28;10281559;28;20129;-85
2022/12/07 00:47:47;;;;;;;61.00;41.03;;;;;;;1.53;100.00;101574.28;10280991;28;20380;-84
2022/12/07 00:52:48;;;;;;;62.15;39.47;;;;;;;1.49;100.00;101590.25;10280068;28;20062;-84
2022/12/07 00:57:48;;;;;;;56.10;45.55;;;;;;;1.48;100.00;101589.34;10279660;28;20035;-84
2022/12/07 01:02:49;;;;;;;62.63;44.33;;;;;;;1.41;100.00;101590.41;10279005;28;20057;-82
2022/12/07 01:07:49;;;;;;;59.45;45.08;;;;;;;1.45;100.00;101586.47;10279956;28;20093;-79
2022/12/07 01:12:50;;;;;;;56.70;43.13;;;;;;;1.43;100.00;101588.00;10279780;28;22296;-82
2022/12/07 01:17:50;;;;;;;64.40;45.65;;;;;;;1.40;100.00;101579.97;10279471;28;20035;-83
2022/12/07 01:22:51;;;;;;;65.68;42.90;;;;;;;1.44;100.00;101580.38;10278264;28;20039;-83
2022/12/07 01:27:51;;;;;;;62.00;44.50;;;;;;;1.44;100.00;101592.41;10279426;28;20065;-82
2022/12/07 01:32:52;;;;;;;52.95;41.65;;;;;;;1.41;100.00;101590.41;10278430;28;20085;-83
2022/12/07 01:37:52;;;;;;;61.85;40.67;;;;;;;1.22;100.00;101585.16;10279075;28;20060;-85
2022/12/07 01:42:53;;;;;;;56.63;41.13;;;;;;;0.92;100.00;101588.22;10279450;28;20043;-84
2022/12/07 01:47:55;;;;;;;58.42;41.65;;;;;;;0.64;100.00;101582.94;10261069;28;20066;-85
2022/12/07 01:52:55;;;;;;;55.05;39.95;;;;;;;0.45;100.00;101585.38;10220034;28;20685;-81
2022/12/07 01:57:56;;;;;;;52.28;40.10;;;;;;;0.31;100.00;101594.28;10223860;28;20062;-82
2022/12/07 02:03:15;;;;;;;74.00;47.28;;;;;;;0.51;100.00;101583.41;10243916;28;20487;-81
2022/12/07 02:08:16;;;;;;;63.13;46.50;;;;;;;0.84;100.00;101582.34;10264328;28;20039;-84
2022/12/07 02:13:24;;;;;;;70.25;52.83;;;;;;;1.07;100.00;101589.72;10277486;28;20130;-84
2022/12/07 02:18:36;;;;;;;76.35;51.38;;;;;;;1.26;100.00;101583.78;10278675;28;20046;-82
2022/12/07 02:24:07;;;;;;;73.55;54.45;;;;;;;1.38;100.00;101579.81;10278841;28;20042;-85
2022/12/07 02:29:14;;;;;;;71.82;50.72;;;;;;;1.42;100.00;101579.34;10282452;28;20042;-85
2022/12/07 02:34:19;;;;;;;72.43;50.10;;;;;;;1.46;100.00;101568.53;10267632;28;20055;-85
2022/12/07 02:39:34;;;;;;;70.32;47.90;;;;;;;1.53;100.00;101572.63;10275797;28;20057;-85
2022/12/07 02:44:34;;;;;;;68.30;48.70;;;;;;;1.49;100.00;101577.34;10278212;28;20030;-85
2022/12/07 02:49:36;;;;;;;75.43;49.60;;;;;;;1.54;100.00;101577.03;10268045;28;20122;-83
2022/12/07 02:54:36;;;;;;;67.50;43.83;;;;;;;1.53;100.00;101574.28;10267948;28;20062;-82
2022/12/07 02:59:47;;;;;;;68.03;48.60;;;;;;;1.36;100.00;101575.28;10283964;28;20154;-82
2022/12/07 03:05:25;;;;;;;69.10;44.28;;;;;;;1.39;100.00;101568.72;10288594;28;20039;-82
2022/12/07 03:10:44;;;;;;;69.93;50.00;;;;;;;1.55;100.00;101570.19;10282525;28;20043;-82
2022/12/07 03:16:03;;;;;;;69.38;48.22;;;;;;;1.62;100.00;101575.16;10290215;28;20594;-82
2022/12/07 03:21:08;;;;;;;77.38;47.67;;;;;;;1.64;100.00;101567.59;10287469;28;20468;-82
2022/12/07 03:26:09;;;;;;;67.78;46.80;;;;;;;1.67;100.00;101573.94;10266319;28;20039;-82
2022/12/07 03:31:18;;;;;;;66.53;47.83;;;;;;;1.43;100.00;101580.25;10267611;28;20443;-83
2022/12/07 03:36:38;;;;;;;71.30;46.97;;;;;;;1.15;100.00;101563.03;10285151;28;20043;-82
2022/12/07 03:41:39;;;;;;;75.18;47.20;;;;;;;0.90;100.00;101564.91;10258666;28;20046;-83
2022/12/07 03:47:06;;;;;;;65.60;44.40;;;;;;;0.95;100.00;101571.41;10243985;28;20122;-84
2022/12/07 03:52:30;;;;;;;73.15;43.90;;;;;;;0.75;100.00;101568.56;10322806;28;20046;-84
2022/12/07 03:57:30;;;;;;;56.65;41.90;;;;;;;0.50;100.00;101569.59;10282879;28;20042;-85
2022/12/07 04:02:31;;;;;;;65.97;44.95;;;;;;;0.47;100.00;101564.16;10282578;28;20043;-85
2022/12/07 04:07:31;;;;;;;67.53;43.60;;;;;;;0.72;100.00;101566.56;10264453;28;20129;-84
2022/12/07 04:12:32;;;;;;;80.95;48.25;;;;;;;0.87;100.00;101569.75;10275869;28;20125;-85
2022/12/07 04:17:32;;;;;;;79.30;48.88;;;;;;;1.02;100.00;101565.16;10280778;28;20043;-85
2022/12/07 04:22:33;;;;;;;63.53;45.28;;;;;;;1.13;100.00;101568.81;10249581;28;20059;-85
2022/12/07 04:27:34;;;;;;;70.18;47.80;;;;;;;1.23;100.00;101562.84;10270792;28;20527;-84
2022/12/07 04:32:34;;;;;;;72.00;48.30;;;;;;;1.33;100.00;101565.56;10281572;28;20039;-85
2022/12/07 04:37:35;;;;;;;61.75;44.08;;;;;;;1.38;100.00;101563.44;10279638;28;20045;-82
2022/12/07 04:42:35;;;;;;;61.97;45.25;;;;;;;1.33;100.00;101552.66;10279720;28;20058;-82
2022/12/07 04:47:36;;;;;;;52.08;38.47;;;;;;;1.29;100.00;101551.47;10279728;28;20129;-81
2022/12/07 04:52:36;;;;;;;50.17;42.15;;;;;;;1.38;100.00;101550.53;10280945;28;20550;-82
2022/12/07 04:57:37;;;;;;;56.72;36.95;;;;;;;1.45;100.00;101548.66;10280570;28;20039;-82
2022/12/07 05:02:37;;;;;;;61.30;39.78;;;;;;;1.51;100.00;101558.69;10280696;28;20442;-82
2022/12/07 05:07:38;;;;;;;55.05;37.55;;;;;;;1.58;100.00;101553.34;10278462;28;20075;-79
2022/12/07 05:12:38;;;;;;;56.67;37.90;;;;;;;1.67;100.00;101548.13;10241958;28;20065;-82
2022/12/07 05:17:39;;;;;;;54.72;33.97;;;;;;;1.69;100.00;101548.28;10241098;28;20039;-82
2022/12/07 05:22:39;;;;;;;51.15;37.85;;;;;;;1.73;100.00;101552.97;10278564;28;20506;-83
2022/12/07 05:27:40;;;;;;;53.17;33.08;;;;;;;1.71;100.00;101555.38;10277313;28;20130;-82
2022/12/07 05:32:40;;;;;;;49.35;33.67;;;;;;;1.69;100.00;101556.03;10257845;28;20178;-83
2022/12/07 05:37:41;;;;;;;47.17;33.42;;;;;;;1.62;100.00;101551.94;10275764;28;20074;-82
2022/12/07 05:42:41;;;;;;;48.97;32.95;;;;;;;1.56;100.00;101552.28;10277041;28;20464;-82
2022/12/07 05:47:44;;;;;;;50.53;32.92;;;;;;;1.57;100.00;101550.59;10227379;28;20053;-81
2022/12/07 05:52:45;;;;;;;51.75;32.72;;;;;;;1.60;100.00;101548.31;10259373;28;20046;-83
2022/12/07 05:59:22;;;;;;;41.85;33.25;;;;;;;1.59;100.00;101538.75;10277251;28;20129;-87
2022/12/07 06:03:06;;;;;;;42.35;30.70;;;;;;;1.48;100.00;101545.50;10316671;28;20466;-84
2022/12/07 06:08:06;;;;;;;54.00;32.38;;;;;;;1.35;100.00;101545.97;10278432;28;20133;-83
2022/12/07 06:13:08;;;;;;;49.22;31.17;;;;;;;1.24;100.00;101546.63;10258295;28;20487;-82
2022/12/07 06:18:09;;;;;;;46.72;30.92;;;;;;;1.07;100.00;101553.63;10255333;28;20066;-86
2022/12/07 06:23:09;;;;;;;48.63;31.67;;;;;;;0.96;100.00;101549.09;10284681;28;20042;-86
2022/12/07 06:28:10;;;;;;;54.80;34.20;;;;;;;0.88;100.00;101545.81;10283459;28;20026;-87
2022/12/07 06:33:10;;;;;;;41.22;32.55;;;;;;;0.74;100.00;101541.88;10285278;28;20071;-89
2022/12/07 06:38:11;;;;;;;47.13;32.25;;;;;;;0.41;100.00;101546.44;10283692;28;20407;-88
2022/12/07 06:43:11;;;;;;;49.38;32.47;;;;;;;0.32;100.00;101547.16;10269335;28;20039;-85
2022/12/07 06:48:12;;;;;;;48.45;35.30;;;;;;;0.11;100.00;101551.97;10284336;28;20045;-86
2022/12/07 06:53:12;;;;;;;49.78;34.05;;;;;;;0.00;100.00;101553.50;10265629;28;20038;-85
2022/12/07 06:58:13;;;;;;;54.63;36.33;;;;;;;0.05;100.00;101553.94;10283866;28;20031;-86
2022/12/07 07:03:13;;;;;;;50.38;34.08;;;;;;;0.26;100.00;101556.09;10285773;28;20108;-84
2022/12/07 07:08:14;;;;;;;62.30;36.08;;;;;;;0.31;100.00;101546.28;10287406;28;20058;-85
2022/12/07 07:13:15;;;;;;;50.15;36.17;;;;;;;0.12;100.00;101546.09;10322544;28;20054;-85
2022/12/07 07:18:16;;;;;;;64.28;35.80;;;;;;;-0.15;100.00;101547.69;10312848;28;20609;-84
2022/12/07 07:23:17;;;;;;;46.87;34.97;;;;;;;-0.28;100.00;101552.34;10282941;28;20050;-84
2022/12/07 07:28:17;;;;;;;54.67;38.67;;;;;;;-0.33;100.00;101552.78;10267004;28;20049;-84
2022/12/07 07:33:21;;;;;;;49.28;33.38;;;;;;;-0.41;100.00;101558.78;10278543;28;20045;-85
2022/12/07 07:38:21;;;;;;;56.22;37.72;;;;;;;-0.39;100.00;101558.97;10252799;28;20126;-82
2022/12/07 07:43:22;;;;;;;62.13;39.75;;;;;;;-0.32;100.00;101553.72;10235609;28;20538;-83
2022/12/07 07:48:25;;;;;;;48.30;35.25;;;;;;;-0.42;100.00;101554.41;10268815;28;20035;-84
2022/12/07 07:53:25;;;;;;;61.72;38.83;;;;;;;-0.25;100.00;101556.16;10280789;28;20101;-85
2022/12/07 07:58:26;;;;;;;61.05;36.78;;;;;;;-0.31;100.00;101556.41;10262510;28;20057;-85
2022/12/07 08:03:28;;;;;;;56.85;37.97;;;;;;;-0.31;100.00;101559.00;10247122;28;20053;-82
2022/12/07 08:08:30;;;;;;;64.85;41.85;;;;;;;-0.39;100.00;101565.00;10262108;28;20039;-84
2022/12/07 08:13:40;;;;;;;70.28;41.40;;;;;;;-0.34;100.00;101566.41;10231338;28;20047;-87
2022/12/07 08:18:41;;;;;;;51.13;36.97;;;;;;;-0.14;100.00;101570.09;10269501;28;20125;-88
2022/12/07 08:23:41;;;;;;;76.90;42.45;;;;;;;0.06;100.00;101574.72;10245143;28;20043;-90
2022/12/07 08:28:42;;;;;;;61.78;43.38;;;;;;;0.16;100.00;101576.53;10260325;28;20027;-88
2022/12/07 08:33:47;;;;;;;75.47;42.70;;;;;;;0.68;100.00;101578.25;10250041;28;20035;-90
2022/12/07 08:38:47;;;;;;;81.82;48.28;;;;;;;1.27;100.00;101577.84;10265479;28;20027;-86
2022/12/07 08:43:48;;;;;;;91.57;52.85;;;;;;;1.41;100.00;101582.69;10277446;28;20038;-87
2022/12/07 08:48:52;;;;;;;82.30;54.63;;;;;;;1.60;100.00;101581.84;10265710;28;20483;-86
2022/12/07 08:53:53;;;;;;;85.72;56.33;;;;;;;1.76;100.00;101581.66;10282271;28;20031;-86
2022/12/07 08:58:54;;;;;;;79.55;52.20;;;;;;;1.98;100.00;101583.66;10280509;28;20118;-86
2022/12/07 09:03:54;;;;;;;88.75;57.22;;;;;;;2.09;100.00;101580.41;10263146;28;20037;-87
2022/12/07 09:08:57;;;;;;;89.15;54.83;;;;;;;2.23;100.00;101579.09;10279427;28;20582;-86
2022/12/07 09:13:58;;;;;;;75.95;50.30;;;;;;;2.38;100.00;101581.28;10247903;28;20035;-88
2022/12/07 09:18:58;;;;;;;79.65;45.22;;;;;;;2.66;100.00;101578.63;10278927;28;20105;-86
2022/12/07 09:23:59;;;;;;;99.43;52.30;;;;;;;2.67;100.00;101581.38;10261787;28;20038;-86
2022/12/07 09:28:59;;;;;;;77.45;46.63;;;;;;;2.54;100.00;101575.84;10280821;28;20085;-88
2022/12/07 09:34:00;;;;;;;78.25;46.25;;;;;;;2.38;100.00;101589.03;10260920;28;20070;-84
2022/12/07 09:39:01;;;;;;;78.25;43.00;;;;;;;2.15;100.00;101590.41;10278619;28;20050;-86
2022/12/07 09:44:06;;;;;;;82.68;46.17;;;;;;;2.52;100.00;101592.91;10277143;28;20046;-87
2022/12/07 09:49:12;;;;;;;85.38;48.58;;;;;;;4.13;100.00;101588.91;10278627;28;20043;-87
2022/12/07 09:54:14;;;;;;;41.53;24.40;;;;;;;6.23;100.00;101583.22;10276816;28;20050;-87
2022/12/07 09:59:18;;;;;;;39.13;16.38;;;;;;;5.40;100.00;101575.00;10277608;28;20037;-88
2022/12/07 10:04:23;;;;;;;29.55;16.85;;;;;;;4.84;100.00;101565.34;10262111;28;20368;-87
2022/12/07 10:09:24;;;;;;;28.45;16.52;;;;;;;4.68;100.00;101540.75;10306363;28;20050;-87
2022/12/07 10:14:26;;;;;;;23.00;16.40;;;;;;;4.05;100.00;101523.47;10270031;28;20515;-88
2022/12/07 10:19:29;;;;;;;31.63;16.85;;;;;;;5.07;100.00;101507.56;10270724;28;20043;-89
2022/12/07 10:24:30;;;;;;;20.73;11.85;;;;;;;5.55;100.00;101502.63;10278547;28;20102;-90
2022/12/07 10:29:36;;;;;;;21.55;13.40;;;;;;;6.31;100.00;101501.53;10276238;28;20031;-89
2022/12/07 10:34:53;;;;;;;25.08;13.38;;;;;;;7.45;97.64;101492.34;10261223;28;20066;-86
2022/12/07 10:39:57;;;;;;;15.30;9.80;;;;;;;6.38;95.80;101481.19;10278575;28;20131;-85
2022/12/07 10:45:15;;;;;;;19.27;13.23;;;;;;;5.27;100.00;101474.50;10295256;28;20041;-89
2022/12/07 10:50:29;;;;;;;18.95;12.10;;;;;;;4.93;100.00;101477.91;10298814;28;20047;-89
2022/12/07 10:55:58;;;;;;;18.08;13.23;;;;;;;5.14;100.00;101468.34;10288232;28;20050;-82
2022/12/07 11:01:05;;;;;;;20.88;10.55;;;;;;;5.14;100.00;101464.81;10235802;28;20047;-86
2022/12/07 11:06:10;;;;;;;13.27;10.30;;;;;;;5.02;100.00;101464.78;10278028;28;20070;-84
2022/12/07 11:11:29;;;;;;;19.23;8.98;;;;;;;5.33;100.00;101453.28;10282429;28;20078;-85
2022/12/07 11:16:32;;;;;;;13.05;8.60;;;;;;;6.08;100.00;101447.78;10283035;28;20406;-86
2022/12/07 11:22:11;;;;;;;19.88;7.93;;;;;;;8.12;90.34;101431.69;10282911;28;20050;-85
2022/12/07 11:27:33;;;;;;;12.15;6.18;;;;;;;8.17;86.79;101425.09;10243296;28;20040;-85
2022/12/07 11:32:55;;;;;;;13.70;6.27;;;;;;;8.92;81.57;101412.53;10243218;28;20492;-87
2022/12/07 11:38:01;;;;;;;11.60;5.22;;;;;;;9.29;79.11;101413.91;10302854;28;20839;-86
2022/12/07 11:43:23;;;;;;;16.60;6.85;;;;;;;10.33;72.08;101406.97;10267624;28;20042;-83
2022/12/07 11:48:55;;;;;;;13.50;7.22;;;;;;;8.99;75.78;101399.88;10320911;28;20129;-84
2022/12/07 11:54:10;;;;;;;13.30;5.68;;;;;;;8.23;80.81;101398.53;10271263;28;20129;-89
2022/12/07 11:59:15;;;;;;;8.70;4.85;;;;;;;8.26;81.96;101395.19;10303025;28;20117;-89
2022/12/07 12:05:02;;;;;;;8.80;4.47;;;;;;;7.96;83.09;101390.69;10320891;28;20054;-88
2022/12/07 12:10:16;;;;;;;9.98;4.07;;;;;;;10.36;74.18;101386.19;10254447;28;20058;-88
2022/12/07 12:15:44;;;;;;;13.27;3.20;;;;;;;10.08;72.01;101386.31;10280185;28;20113;-89
2022/12/07 12:20:50;;;;;;;13.23;3.63;;;;;;;8.74;76.45;101388.75;10320257;28;20478;-87
2022/12/07 12:25:53;;;;;;;10.38;3.92;;;;;;;8.17;81.02;101385.09;10247632;28;20036;-85
2022/12/07 12:31:21;;;;;;;10.18;4.43;;;;;;;7.85;83.96;101376.03;10240285;28;20050;-84
2022/12/07 12:36:26;;;;;;;10.32;3.95;;;;;;;7.39;85.19;101371.19;10239112;28;20043;-82
2022/12/07 12:41:39;;;;;;;11.23;3.85;;;;;;;6.94;88.52;101356.00;10248066;28;20042;-84
2022/12/07 12:46:46;;;;;;;8.40;3.72;;;;;;;6.46;90.23;101357.84;10275246;28;20574;-81
2022/12/07 12:51:51;;;;;;;11.27;4.43;;;;;;;6.39;92.36;101358.19;10308753;28;20419;-84
2022/12/07 12:57:30;;;;;;;10.90;3.15;;;;;;;6.16;93.40;101344.41;10302081;28;20034;-83
2022/12/07 13:02:37;;;;;;;13.23;3.30;;;;;;;6.04;94.13;101346.13;10318430;28;20448;-80
2022/12/07 13:07:46;;;;;;;10.32;2.95;;;;;;;5.66;93.93;101343.34;10251932;28;20039;-80
2022/12/07 13:13:17;;;;;;;6.25;1.38;;;;;;;5.33;92.79;101349.47;10242474;28;20047;-81
2022/12/07 13:18:27;;;;;;;5.55;3.20;;;;;;;5.29;94.00;101353.53;10242595;28;20074;-87
2022/12/07 13:23:49;;;;;;;6.22;3.50;;;;;;;5.13;96.95;101341.97;10241294;28;20046;-87
2022/12/07 13:28:51;;;;;;;;;;;;;;;5.08;99.48;101335.53;10239974;28;20491;-88
2022/12/07 13:33:52;;;;;;;4.70;2.30;;;;;;;5.10;100.00;101330.44;10263851;28;19932;-80
2022/12/07 13:39:00;;;;;;;7.30;2.83;;;;;;;4.85;100.00;101329.47;10259794;28;20027;-81
2022/12/07 13:44:10;;;;;;;8.80;4.10;;;;;;;4.65;100.00;101325.28;10262001;28;20038;-81
2022/12/07 13:49:22;;;;;;;7.55;3.78;;;;;;;4.74;100.00;101319.94;10317401;28;20490;-81
2022/12/07 13:54:23;;;;;;;10.88;4.72;;;;;;;4.73;100.00;101319.78;10317909;28;20125;-81
2022/12/07 13:59:25;;;;;;;30.90;5.10;;;;;;;4.58;100.00;101322.09;10315115;28;20038;-83
2022/12/07 14:04:28;;;;;;;11.55;3.85;;;;;;;4.41;100.00;101319.97;10243136;28;20097;-86
2022/12/07 14:09:29;;;;;;;12.20;5.00;;;;;;;4.32;100.00;101310.56;10243037;28;20086;-85
2022/12/07 14:14:30;;;;;;;9.77;5.40;;;;;;;4.32;100.00;101302.78;10219915;28;20584;-86
2022/12/07 14:19:54;;;;;;;9.90;4.15;;;;;;;4.30;100.00;101302.66;10220875;28;20484;-85
2022/12/07 14:25:05;;;;;;;8.52;4.85;;;;;;;4.25;100.00;101291.00;10240743;28;20082;-86
2022/12/07 14:30:06;;;;;;;18.23;6.88;;;;;;;4.23;100.00;101288.31;10236478;28;20476;-83
2022/12/07 14:35:11;;;;;;;8.40;4.97;;;;;;;3.99;100.00;101275.97;10204555;28;20062;-86
2022/12/07 14:40:22;;;;;;;12.13;6.30;;;;;;;3.58;100.00;101277.91;10221198;28;20035;-85
2022/12/07 14:45:23;;;;;;;18.47;5.87;;;;;;;3.30;100.00;101287.63;10229787;28;20050;-85
2022/12/07 14:50:23;;;;;;;21.05;7.63;;;;;;;3.19;100.00;101286.75;10227193;28;20035;-84
2022/12/07 14:55:29;;;;;;;15.20;7.85;;;;;;;3.20;100.00;101285.97;10245192;28;20063;-87
2022/12/07 15:00:29;;;;;;;15.63;7.90;;;;;;;3.24;100.00;101293.22;10226402;28;20763;-86
2022/12/07 15:05:30;;;;;;;12.20;9.02;;;;;;;3.22;100.00;101285.31;10245953;28;20062;-86
2022/12/07 15:10:32;;;;;;;13.60;7.68;;;;;;;3.17;100.00;101280.53;10316697;28;20046;-86
2022/12/07 15:15:33;;;;;;;10.50;7.70;;;;;;;2.98;100.00;101276.41;10284364;28;20051;-86
2022/12/07 15:20:33;;;;;;;15.90;8.00;;;;;;;2.63;100.00;101276.88;10265546;28;20038;-86
2022/12/07 15:25:34;;;;;;;14.63;7.32;;;;;;;2.33;100.00;101276.03;10284798;28;20062;-86
2022/12/07 15:30:36;;;;;;;13.88;7.82;;;;;;;2.09;100.00;101275.69;10281247;28;20487;-86
2022/12/07 15:35:41;;;;;;;19.58;9.00;;;;;;;1.85;100.00;101272.75;10282934;28;20037;-87
2022/12/07 15:40:41;;;;;;;14.07;9.60;;;;;;;1.79;100.00;101272.22;10305031;28;20133;-87
2022/12/07 15:45:42;;;;;;;16.17;8.85;;;;;;;1.83;100.00;101271.72;10282838;28;20043;-85
2022/12/07 15:50:42;;;;;;;14.85;10.63;;;;;;;1.83;100.00;101273.38;10314340;28;20038;-87
2022/12/07 15:55:43;;;;;;;13.23;7.88;;;;;;;1.80;100.00;101266.28;10282779;28;20428;-87
2022/12/07 16:00:43;;;;;;;14.70;10.75;;;;;;;1.79;100.00;101276.44;10263862;28;20045;-86
2022/12/07 16:05:53;;;;;;;15.50;11.15;;;;;;;1.82;100.00;101272.47;10262327;28;20483;-86
2022/12/07 16:10:53;;;;;;;15.25;10.10;;;;;;;1.87;100.00;101271.22;10250954;28;20066;-84
2022/12/07 16:15:54;;;;;;;16.55;11.45;;;;;;;1.86;100.00;101271.97;10264459;28;20117;-86
2022/12/07 16:20:54;;;;;;;18.23;11.57;;;;;;;1.82;100.00;101272.47;10271228;28;20051;-84
2022/12/07 16:26:07;;;;;;;11.10;9.02;;;;;;;1.87;100.00;101273.78;10273934;28;20049;-88
2022/12/07 16:31:11;;;;;;;16.08;11.52;;;;;;;1.71;100.00;101274.09;10264092;28;20067;-88
2022/12/07 16:36:13;;;;;;;15.60;10.75;;;;;;;1.55;100.00;101270.88;10277458;28;20035;-87
2022/12/07 16:41:13;;;;;;;18.95;9.30;;;;;;;1.45;100.00;101264.00;10279559;28;20539;-90
2022/12/07 16:46:15;;;;;;;14.27;10.60;;;;;;;1.38;100.00;101261.63;10279269;28;20042;-85
2022/12/07 16:51:16;;;;;;;15.73;9.60;;;;;;;1.29;100.00;101257.47;10280379;28;20061;-84
2022/12/07 16:56:16;;;;;;;22.08;11.38;;;;;;;1.28;100.00;101259.88;10259499;28;20575;-88
2022/12/07 17:01:22;;;;;;;15.45;10.75;;;;;;;1.32;100.00;101246.50;10278209;28;20503;-88
2022/12/07 17:06:25;;;;;;;18.92;12.68;;;;;;;1.33;100.00;101248.31;10260483;28;20054;-88
2022/12/07 17:11:27;;;;;;;17.45;13.15;;;;;;;1.42;100.00;101243.09;10237966;28;20130;-86
2022/12/07 17:16:28;;;;;;;26.63;14.13;;;;;;;1.48;100.00;101253.97;10259756;28;20097;-88
2022/12/07 17:21:29;;;;;;;32.47;16.88;;;;;;;1.64;100.00;101240.75;10275137;28;20058;-88
2022/12/07 17:26:30;;;;;;;30.45;18.35;;;;;;;1.67;100.00;101246.19;10278119;28;20039;-88
2022/12/07 17:31:32;;;;;;;23.40;15.10;;;;;;;1.76;100.00;101236.69;10265201;28;20047;-87
2022/12/07 17:36:32;;;;;;;28.13;19.27;;;;;;;1.80;100.00;101242.13;10256599;28;20047;-90
2022/12/07 17:46:56;;;;;;;34.83;21.70;;;;;;;2.07;100.00;101238.50;10274933;28;20647;-87
2022/12/07 17:57:16;;;;;;;38.42;26.20;;;;;;;2.20;100.00;101218.16;10277598;28;20042;-88
2022/12/07 18:02:17;;;;;;;44.55;24.40;;;;;;;2.25;100.00;101208.19;10276284;28;20550;-88
2022/12/07 18:07:17;;;;;;;38.75;24.65;;;;;;;2.26;100.00;101210.00;10276522;28;20110;-87
2022/12/07 18:12:18;;;;;;;42.55;26.42;;;;;;;2.16;100.00;101198.00;10276216;28;20093;-84
2022/12/07 18:17:19;;;;;;;38.80;25.00;;;;;;;2.12;100.00;101192.41;10282213;28;20039;-86
2022/12/07 18:22:19;;;;;;;38.63;22.77;;;;;;;2.04;100.00;101192.66;10284172;28;20049;-90
2022/12/07 18:27:20;;;;;;;34.05;22.17;;;;;;;2.15;100.00;101195.25;10281837;28;20074;-86
2022/12/07 18:32:20;;;;;;;39.53;22.50;;;;;;;2.09;100.00;101189.56;10263976;28;20042;-86
2022/12/07 18:37:26;;;;;;;33.00;22.13;;;;;;;2.04;100.00;101190.06;10257274;28;20130;-86
2022/12/07 18:42:26;;;;;;;37.38;21.35;;;;;;;2.09;100.00;101192.16;10286480;28;20053;-87
2022/12/07 18:47:27;;;;;;;30.63;20.35;;;;;;;2.08;100.00;101195.50;10281994;28;20125;-87
2022/12/07 18:52:27;;;;;;;31.63;21.33;;;;;;;2.00;100.00;101189.69;10273094;28;20049;-87
2022/12/07 18:57:31;;;;;;;32.15;19.95;;;;;;;1.94;100.00;101184.88;10278730;28;20038;-87
2022/12/07 19:02:32;;;;;;;33.83;22.90;;;;;;;1.91;100.00;101182.03;10261283;28;20477;-86
2022/12/07 19:07:32;;;;;;;35.63;22.35;;;;;;;2.00;100.00;101185.41;10277339;28;20031;-86
2022/12/07 19:12:34;;;;;;;30.40;21.98;;;;;;;2.11;100.00;101183.78;10285319;28;20507;-86
2022/12/07 19:17:34;;;;;;;24.00;16.40;;;;;;;2.16;100.00;101190.25;10301749;28;20047;-87
2022/12/07 19:22:35;;;;;;;29.02;23.38;;;;;;;2.18;100.00;101185.19;10297110;28;20482;-87
2022/12/07 19:27:36;;;;;;;36.85;22.83;;;;;;;2.22;100.00;101174.34;10297614;28;20130;-87
2022/12/07 19:32:36;;;;;;;33.15;23.02;;;;;;;2.29;100.00;101163.78;10279820;28;20038;-81
2022/12/07 19:37:38;;;;;;;31.50;21.80;;;;;;;2.23;100.00;101160.66;10301816;28;20125;-86
2022/12/07 19:42:38;;;;;;;32.60;22.23;;;;;;;2.18;100.00;101161.94;10306691;28;20130;-86
2022/12/07 19:47:39;;;;;;;32.38;19.52;;;;;;;2.15;100.00;101151.34;10295516;28;20049;-84
2022/12/07 19:52:39;;;;;;;29.73;20.50;;;;;;;2.13;100.00;101156.41;10271805;28;20053;-80
2022/12/07 19:57:40;;;;;;;30.13;20.92;;;;;;;2.08;100.00;101149.03;10238675;28;20053;-86
2022/12/07 20:02:40;;;;;;;33.67;22.42;;;;;;;2.01;100.00;101145.03;10258214;28;20051;-85
2022/12/07 20:07:41;;;;;;;30.15;20.38;;;;;;;1.98;100.00;101150.81;10292301;28;20042;-87
2022/12/07 20:18:01;;;;;;;30.92;22.02;;;;;;;1.78;100.00;101133.59;10293673;28;20399;-85
2022/12/07 20:23:01;;;;;;;40.80;24.58;;;;;;;1.77;100.00;101136.97;10281581;28;20069;-86
2022/12/07 20:28:02;;;;;;;30.98;21.75;;;;;;;1.74;100.00;101129.84;10294823;28;20402;-81
2022/12/07 20:33:02;;;;;;;28.58;23.52;;;;;;;1.76;100.00;101128.28;10308370;28;20053;-84
2022/12/07 20:38:03;;;;;;;39.53;25.60;;;;;;;1.72;100.00;101125.31;10283615;28;20073;-88
2022/12/07 20:43:03;;;;;;;35.55;24.75;;;;;;;1.72;100.00;101121.06;10288917;28;20049;-86
2022/12/07 20:48:04;;;;;;;37.53;24.35;;;;;;;1.73;100.00;101115.13;10297863;28;20556;-86
2022/12/07 20:53:04;;;;;;;31.73;22.83;;;;;;;1.67;100.00;101121.44;10299051;28;20046;-86
2022/12/07 20:58:05;;;;;;;33.13;25.02;;;;;;;1.62;100.00;101113.28;10243925;28;20051;-85
2022/12/07 21:03:06;;;;;;;32.45;23.08;;;;;;;1.60;100.00;101115.75;10246562;28;20479;-86
2022/12/07 21:08:06;;;;;;;28.70;20.50;;;;;;;1.68;100.00;101118.09;10269102;28;20455;-85
2022/12/07 21:13:07;;;;;;;38.95;21.10;;;;;;;1.73;100.00;101111.66;10298460;28;20133;-84
2022/12/07 21:18:07;;;;;;;29.45;21.25;;;;;;;1.72;100.00;101115.00;10300788;28;20129;-84
2022/12/07 21:23:08;;;;;;;28.83;20.25;;;;;;;1.73;100.00;101106.50;10319255;28;20130;-87
2022/12/07 21:28:08;;;;;;;33.00;22.65;;;;;;;1.72;100.00;101090.09;10296120;28;20038;-87
2022/12/07 21:33:09;;;;;;;29.40;21.20;;;;;;;1.70;100.00;101085.56;10278979;28;20134;-87
2022/12/07 21:38:09;;;;;;;24.67;19.73;;;;;;;1.78;100.00;101084.56;10278956;28;20047;-86
2022/12/07 21:43:10;;;;;;;30.70;19.33;;;;;;;1.75;100.00;101080.03;10275636;28;20041;-87
2022/12/07 21:48:10;;;;;;;30.17;18.90;;;;;;;1.70;100.00;101081.31;10275352;28;20047;-86
2022/12/07 21:53:11;;;;;;;47.28;21.15;;;;;;;1.71;100.00;101075.38;10280008;28;20031;-88
2022/12/07 21:58:11;;;;;;;29.80;18.75;;;;;;;1.73;100.00;101079.00;10276664;28;20043;-86
2022/12/07 22:03:12;;;;;;;24.08;15.98;;;;;;;1.74;100.00;101074.75;10278094;28;20041;-87
2022/12/07 22:08:12;;;;;;;34.95;17.48;;;;;;;1.74;100.00;101070.47;10279354;28;20038;-87
2022/12/07 22:13:13;;;;;;;24.10;17.63;;;;;;;1.74;100.00;101067.91;10276377;28;20129;-86
2022/12/07 22:18:13;;;;;;;21.80;16.88;;;;;;;1.72;100.00;101061.69;10260500;28;20105;-87
2022/12/07 22:23:14;;;;;;;20.95;15.63;;;;;;;1.73;100.00;101066.09;10275939;28;20039;-86
2022/12/07 22:28:17;;;;;;;31.58;18.10;;;;;;;1.78;100.00;101069.09;10277956;28;20134;-86
2022/12/07 22:33:17;;;;;;;20.80;17.38;;;;;;;1.77;100.00;101059.53;10277462;28;20047;-86
2022/12/07 22:38:18;;;;;;;20.75;15.52;;;;;;;1.85;100.00;101050.75;10258207;28;20043;-86
2022/12/07 22:43:18;;;;;;;25.70;17.27;;;;;;;1.86;100.00;101046.50;10277144;28;20548;-81
2022/12/07 22:48:19;;;;;;;26.88;16.50;;;;;;;1.85;100.00;101031.78;10276076;28;20045;-86
2022/12/07 22:53:20;;;;;;;25.95;16.45;;;;;;;1.89;100.00;101024.44;10276342;28;20070;-86
2022/12/07 22:58:21;;;;;;;26.48;17.98;;;;;;;1.88;100.00;101020.06;10259229;28;20095;-87
2022/12/07 23:03:22;;;;;;;26.27;16.13;;;;;;;1.88;100.00;101012.31;10282071;28;20112;-86
2022/12/07 23:08:22;;;;;;;27.00;18.58;;;;;;;1.88;100.00;101011.38;10282188;28;20398;-88